Kezdőlap
METAR-TAF:

METAR-TAF

Repülőterek :

Laupheim, Németország

földrajzi szélesség: 48-13N, földrajzi hosszúság: 009-55E, magasság: 538 m

Jelenlegi meteorológiai megfigyelések

A jelentés 55 perccel ezelõtt készült, 20:20 UTC
Különbözõ irányokból fújó szél 2 kt
Hőmérséklet 0°C
Páratartalom 93%
Légköri nyomás 993 hPa

METAR: ETHL 232020Z AUTO VRB02KT //// // ////// M00/M01 Q0993 ///

Idő: 22:15 (21:15 UTC)


TAF: hiányzik

Meteorológiai megfigyelések és előrejelzések több, mint 4000 repülőtéren (METAR és TAF jelentéseket).

A térképen piros és sárga pontok jelzik az elérhető meteorológiai állomásokat.

Mozgassa az egeret a pont fölött, hogy megjelenjen az állomás neve.

Azután kattintson az időjárási megfigyelések és előrejelzések megtekintéséhez.

A térkép megváltoztatása: kattintson a fekete keresztel jelölt zöld gombra ráközelítéshez, a vonallal jelölt zöld gombra távolításhoz, vagy a zöld nyilakra a szomszédos térképek eléréséhez.


METAR-TAF: